Aérodrome :
LOGIN :

S'inscrire | Disclaimer

   EN    FR    IT 

 










Légende :    VFR   VFR Marginal   IFR   IFR Intensif   IFR Très Intensif
Visi : 
Plafond : 
>= 8 km
>= 3000ft
5 à 8 km
1000 à 3000 ft
1500m à 5 km
500 à 1000 ft
800 à 1500m
200 à 500 ft
< 800m
< 200 ft
Symboles :   Orages  Brouillard  Fortes neiges  Fortes précipitations  Vent > 20 kt
SIGMETs :   Divers  Orages  Givrage  Turbulence  Onde Orograph.  Cendres Volcan.







- Altitude de l'aérodrome : 187 ft


LPMR - Monte Real Air Base

DERNIER METAR :
  • 262300Z 33004KT 9999 SCT007 16/15 Q1015

METARs EXPIRÉS :
  • 262200Z 32004KT CAVOK 16/15 Q1015
  • 262100Z 33004KT 9999 FEW015 16/14 Q1014

TAF TAF LPMR
Valide du 27 à 00h jusqu'au 28 à 00h UTC


262303Z 2700/2724 34010KT 9999 FEW020
PROB40 2700/2710 VRB02KT 0100 FG BKN001
PROB40
TEMPO 2711/2716 4000 SHRA FEW014 BKN018 SCT025TCU
TEMPO 2712/2719 35015G25KT
PROB40
TEMPO 2716/2724 FEW014 BKN018
Pas de NOTAMs connus pour ce terrain.



MET'MAP, la Météo Aéronautique d'un coup d'oeil ! - Copyright ORBIFLY Décembre 2007 - Disclaimer

ORBIFLY MET'MAP TEAM :

Programmation & Développement : Alexandra Zaïnal
Conception & Développement : Baudouin d'Aumeries
Co-Programmation & Développement : Marc-Olivier Méhu
Soutien technique & logistique : Manuel Goepfert

Contact : metmap@orbifly.com




SOURCES & CREDITS :

   NOAA